Los Coyotes, Texas
Current Conditions -  °F | °C
As of 4:52 PM on Saturday 25 Oct 2014 (Local Time) from KHRL Reporting Station
Clear Clear  
Wind Chill: 83°   Ceiling: Unl
Heat Index: 85°   Visibility: 10mi
Dew Point: 66°   Wind: 12mph
Humidity: 56%   Direction: 70°ENE
Pressure: 30.07"   Gusts: NA
Location:  26.4075°N, 97.7282°W
Report Text: KHRL 252152Z 07010KT 10SM CLR 28/19 A3007 RMK AO2 SLP182 T02830189
Loading
Personal Weather Stations






























Interactive Weather Map
Tropical Storm Tracking
New forecast layout! Learn more

10-Day Weather Forecast

Advertisements
Track Severe Weather on mobile